createdAt,value
2022-10-14T00:04:42.348Z,0
2022-10-14T00:09:42.290Z,0
2022-10-14T00:14:42.385Z,0
2022-10-14T00:24:48.373Z,0
2022-10-14T00:29:44.043Z,0
2022-10-14T00:34:42.493Z,0
2022-10-14T00:39:42.522Z,0
2022-10-14T00:44:42.298Z,0
2022-10-14T00:49:42.293Z,0
2022-10-14T00:54:42.291Z,0
2022-10-14T00:59:42.417Z,0
2022-10-14T01:04:42.263Z,0
2022-10-14T01:09:42.286Z,0
2022-10-14T01:14:42.287Z,0
2022-10-14T01:19:42.332Z,0
2022-10-14T01:24:42.327Z,0
2022-10-14T01:29:42.434Z,0
2022-10-14T01:34:42.303Z,0
2022-10-14T01:39:42.335Z,0
2022-10-14T01:44:42.316Z,0
2022-10-14T01:49:42.304Z,0
2022-10-14T01:54:42.260Z,0
2022-10-14T01:59:42.396Z,0
2022-10-14T02:04:42.325Z,0
2022-10-14T02:09:42.294Z,0
2022-10-14T02:14:42.313Z,0
2022-10-14T02:19:42.329Z,0
2022-10-14T02:24:42.352Z,0
2022-10-14T02:29:42.456Z,0
2022-10-14T02:34:42.296Z,0
2022-10-14T02:39:42.313Z,0
2022-10-14T02:44:42.276Z,0
2022-10-14T02:49:42.314Z,0
2022-10-14T02:54:42.314Z,0
2022-10-14T02:59:42.352Z,0
2022-10-14T03:04:42.330Z,0
2022-10-14T03:09:42.400Z,0
2022-10-14T03:14:42.290Z,0
2022-10-14T03:29:43.246Z,0
2022-10-14T03:34:42.350Z,0
2022-10-14T03:39:42.315Z,0
2022-10-14T03:44:42.369Z,0
2022-10-14T03:49:42.361Z,0
2022-10-14T03:54:42.267Z,0
2022-10-14T03:59:42.456Z,0
2022-10-14T04:04:42.301Z,0
2022-10-14T04:09:42.391Z,0
2022-10-14T04:14:42.449Z,0
2022-10-14T04:19:42.398Z,0
2022-10-14T04:24:42.465Z,0
2022-10-14T04:29:42.661Z,0
2022-10-14T04:34:42.359Z,0
2022-10-14T04:39:42.329Z,0
2022-10-14T04:44:42.350Z,0
2022-10-14T04:49:42.471Z,0
2022-10-14T04:54:42.350Z,0
2022-10-14T04:59:42.488Z,0
2022-10-14T05:04:42.340Z,0
2022-10-14T05:09:46.292Z,0
2022-10-14T05:14:42.334Z,0
2022-10-14T05:19:42.747Z,0
2022-10-14T05:24:42.342Z,256
2022-10-14T05:29:42.458Z,256
2022-10-14T05:34:42.406Z,258
2022-10-14T05:39:42.388Z,260
2022-10-14T05:44:42.304Z,262
2022-10-14T05:49:42.416Z,267
2022-10-14T05:54:42.352Z,269
2022-10-14T05:59:42.515Z,274
2022-10-14T06:04:42.359Z,274
2022-10-14T06:09:42.342Z,273
2022-10-14T06:14:42.341Z,272
2022-10-14T06:19:42.315Z,285
2022-10-14T06:24:42.365Z,293
2022-10-14T06:29:45.161Z,283
2022-10-14T06:34:42.413Z,279
2022-10-14T06:39:42.354Z,324
2022-10-14T06:44:42.342Z,315
2022-10-14T06:49:42.445Z,345
2022-10-14T06:54:48.095Z,369
2022-10-14T06:59:42.494Z,367
2022-10-14T07:04:42.374Z,402
2022-10-14T07:09:42.372Z,432
2022-10-14T07:14:42.353Z,439
2022-10-14T07:19:42.354Z,358
2022-10-14T07:24:42.361Z,404
2022-10-14T07:29:42.527Z,369
2022-10-14T07:34:42.352Z,406
2022-10-14T07:39:42.339Z,418
2022-10-14T07:44:42.401Z,521
2022-10-14T07:49:45.918Z,480
2022-10-14T07:54:42.392Z,434
2022-10-14T07:59:42.678Z,415
2022-10-14T08:04:42.371Z,450
2022-10-14T08:09:42.352Z,505
2022-10-14T08:14:42.382Z,510
2022-10-14T08:19:42.347Z,546
2022-10-14T08:24:42.415Z,644
2022-10-14T08:29:42.591Z,730
2022-10-14T08:34:42.488Z,744
2022-10-14T08:39:42.424Z,708
2022-10-14T08:44:42.335Z,733
2022-10-14T08:49:42.400Z,799
2022-10-14T08:54:42.376Z,1018
2022-10-14T08:59:42.482Z,1294
2022-10-14T09:04:42.372Z,1655
2022-10-14T09:09:42.502Z,2042
2022-10-14T09:14:42.502Z,1961
2022-10-14T09:19:42.387Z,1551
2022-10-14T09:24:42.396Z,1712
2022-10-14T09:29:43.547Z,1675
2022-10-14T09:34:43.391Z,2430
2022-10-14T09:39:43.402Z,2039
2022-10-14T09:44:43.366Z,2706
2022-10-14T09:49:43.410Z,2813
2022-10-14T09:54:43.446Z,2384
2022-10-14T09:59:43.436Z,1737
2022-10-14T10:04:43.407Z,1781
2022-10-14T10:09:43.395Z,2554
2022-10-14T10:14:43.389Z,2585
2022-10-14T10:19:43.376Z,1927
2022-10-14T10:24:43.400Z,1809
2022-10-14T10:29:43.551Z,2087
2022-10-14T10:34:43.454Z,2445
2022-10-14T10:39:43.409Z,1900
2022-10-14T10:44:43.418Z,1132
2022-10-14T10:49:43.434Z,1436
2022-10-14T10:54:43.430Z,1466
2022-10-14T10:59:43.445Z,1500
2022-10-14T11:04:43.442Z,1538
2022-10-14T11:09:43.429Z,1718
2022-10-14T11:14:43.401Z,1460
2022-10-14T11:19:43.485Z,1226
2022-10-14T11:24:44.271Z,1257
2022-10-14T11:29:43.395Z,1257
2022-10-14T11:34:43.402Z,1282
2022-10-14T11:39:43.426Z,1249
2022-10-14T11:44:43.554Z,1190
2022-10-14T11:49:43.526Z,762
2022-10-14T11:54:43.583Z,858
2022-10-14T11:59:43.518Z,865
2022-10-14T12:04:43.439Z,909
2022-10-14T12:09:43.521Z,1000
2022-10-14T12:14:43.720Z,1032
2022-10-14T12:19:43.411Z,882
2022-10-14T12:24:43.425Z,835
2022-10-14T12:29:43.601Z,774
2022-10-14T12:34:43.416Z,835
2022-10-14T12:39:43.438Z,730
2022-10-14T12:44:43.458Z,597
2022-10-14T12:49:43.485Z,729
2022-10-14T12:54:43.479Z,761
2022-10-14T12:59:43.532Z,756
2022-10-14T13:04:43.425Z,628
2022-10-14T13:09:43.376Z,689
2022-10-14T13:14:43.440Z,597
2022-10-14T13:19:43.425Z,542
2022-10-14T13:24:43.429Z,581
2022-10-14T13:29:43.485Z,544
2022-10-14T13:34:43.450Z,528
2022-10-14T13:39:43.485Z,550
2022-10-14T13:44:43.504Z,632
2022-10-14T13:49:43.454Z,881
2022-10-14T13:54:43.573Z,1090
2022-10-14T14:00:09.041Z,759
2022-10-14T14:04:43.440Z,870
2022-10-14T14:09:43.474Z,863
2022-10-14T14:14:43.538Z,745
2022-10-14T14:19:43.617Z,455
2022-10-14T14:24:46.303Z,443
2022-10-14T14:29:43.642Z,473
2022-10-14T14:34:43.674Z,441
2022-10-14T14:39:43.456Z,464
2022-10-14T14:44:43.499Z,474
2022-10-14T14:49:43.447Z,441
2022-10-14T14:54:43.464Z,440
2022-10-14T14:59:43.518Z,405
2022-10-14T15:04:43.588Z,440
2022-10-14T15:09:43.453Z,399
2022-10-14T15:14:43.473Z,353
2022-10-14T15:19:43.488Z,355
2022-10-14T15:24:43.468Z,374
2022-10-14T15:29:43.529Z,355
2022-10-14T15:34:48.206Z,366
2022-10-14T15:39:43.628Z,347
2022-10-14T15:44:43.458Z,298
2022-10-14T15:49:43.513Z,301
2022-10-14T15:54:43.472Z,287
2022-10-14T15:59:43.490Z,270
2022-10-14T16:04:54.997Z,273
2022-10-14T16:09:43.522Z,278
2022-10-14T16:14:43.514Z,271
2022-10-14T16:19:43.476Z,265
2022-10-14T16:24:43.496Z,260
2022-10-14T16:29:43.476Z,256
2022-10-14T16:34:43.461Z,256
2022-10-14T16:39:43.498Z,0
2022-10-14T16:44:43.452Z,0
2022-10-14T16:49:43.522Z,0
2022-10-14T16:54:43.483Z,0
2022-10-14T16:59:43.494Z,0
2022-10-14T17:04:43.473Z,0
2022-10-14T17:09:43.550Z,0
2022-10-14T17:14:43.562Z,0
2022-10-14T17:19:43.504Z,0
2022-10-14T17:24:43.560Z,0
2022-10-14T17:29:43.753Z,0
2022-10-14T17:34:43.625Z,0
2022-10-14T17:39:43.492Z,0
2022-10-14T17:44:43.872Z,0
2022-10-14T17:49:43.531Z,0
2022-10-14T17:54:43.508Z,0
2022-10-14T17:59:43.542Z,0
2022-10-14T18:04:43.570Z,0
2022-10-14T18:09:43.544Z,0
2022-10-14T18:14:43.498Z,0
2022-10-14T18:19:45.964Z,0
2022-10-14T18:24:43.549Z,0
2022-10-14T18:29:43.551Z,0
2022-10-14T18:34:43.576Z,0
2022-10-14T18:39:43.570Z,0
2022-10-14T18:44:43.567Z,0
2022-10-14T18:49:43.523Z,0
2022-10-14T18:54:43.534Z,0
2022-10-14T18:59:43.579Z,0
2022-10-14T19:04:43.562Z,0
2022-10-14T19:09:43.563Z,0
2022-10-14T19:14:43.584Z,0
2022-10-14T19:19:43.605Z,0
2022-10-14T19:24:43.528Z,0
2022-10-14T19:29:43.857Z,0
2022-10-14T19:34:47.132Z,0
2022-10-14T19:39:43.565Z,0
2022-10-14T19:44:43.554Z,0
2022-10-14T19:49:43.544Z,0
2022-10-14T19:54:43.578Z,0
2022-10-14T19:59:43.700Z,0
2022-10-14T20:04:43.567Z,0
2022-10-14T20:09:43.552Z,0
2022-10-14T20:14:43.666Z,0
2022-10-14T20:19:43.579Z,0
2022-10-14T20:30:50.630Z,0
2022-10-14T20:34:43.570Z,0
2022-10-14T20:39:43.518Z,0
2022-10-14T20:44:43.549Z,0
2022-10-14T20:49:43.621Z,0
2022-10-14T20:54:43.668Z,0
2022-10-14T20:59:43.558Z,0
2022-10-14T21:04:43.575Z,0
2022-10-14T21:09:43.550Z,0
2022-10-14T21:14:43.583Z,0
2022-10-14T21:19:43.569Z,0
2022-10-14T21:24:43.549Z,0
2022-10-14T21:29:43.624Z,0
2022-10-14T21:44:43.686Z,0
2022-10-14T21:49:43.858Z,0
2022-10-14T21:54:43.809Z,0
2022-10-14T21:59:43.798Z,0
2022-10-14T22:04:44.016Z,0
2022-10-14T22:09:43.599Z,0
2022-10-14T22:14:49.318Z,0
2022-10-14T22:19:43.638Z,0
2022-10-14T22:24:43.546Z,0
2022-10-14T22:29:43.751Z,0
2022-10-14T22:39:43.573Z,0
2022-10-14T22:44:43.583Z,0
2022-10-14T22:49:43.556Z,0
2022-10-14T22:54:43.526Z,0
2022-10-14T22:59:43.595Z,0
2022-10-14T23:04:43.561Z,0
2022-10-14T23:09:43.581Z,0
2022-10-14T23:14:43.558Z,0
2022-10-14T23:19:43.646Z,0
2022-10-14T23:24:43.622Z,0
2022-10-14T23:29:43.598Z,0
2022-10-14T23:34:43.584Z,0
2022-10-14T23:39:43.547Z,0
2022-10-14T23:44:43.564Z,0
2022-10-14T23:49:43.565Z,0
2022-10-14T23:54:43.560Z,0
2022-10-14T23:59:43.607Z,0
